Time;durP1;ratioP1;P1;durP2;ratioP2;P2;SDS_P1;SDS_P2;PMS_P1;PMS_P2;Temp;Humidity;BMP_temperature;BMP_pressure;BME280_temperature;BME280_humidity;BME280_pressure;Samples;Min_cycle;Max_cycle;Signal;HPM_P1;HPM_P2
2022/05/06 00:00:13;;;;;;;9.38;7.93;;;11.60;99.90;;;;;;5126998;27;20240;-74
2022/05/06 00:02:40;;;;;;;10.70;8.13;;;11.60;99.90;;;;;;5127024;27;20253;-73
2022/05/06 00:05:11;;;;;;;13.85;10.32;;;11.60;99.90;;;;;;5118411;27;20288;-72
2022/05/06 00:07:37;;;;;;;12.00;7.90;;;11.50;99.90;;;;;;5121805;27;20220;-72
2022/05/06 00:10:05;;;;;;;10.68;9.38;;;11.50;99.90;;;;;;5125623;27;20221;-74
2022/05/06 00:12:32;;;;;;;16.05;8.60;;;11.50;99.90;;;;;;5125810;27;20198;-74
2022/05/06 00:14:59;;;;;;;12.52;9.02;;;11.50;99.90;;;;;;5130173;27;20305;-72
2022/05/06 00:17:26;;;;;;;12.38;8.68;;;11.50;99.90;;;;;;5123849;27;20633;-72
2022/05/06 00:19:53;;;;;;;14.40;9.50;;;11.40;99.90;;;;;;5126214;27;20221;-72
2022/05/06 00:22:22;;;;;;;10.25;8.52;;;11.40;99.90;;;;;;5120053;27;20745;-72
2022/05/06 00:24:51;;;;;;;10.40;7.97;;;11.40;99.90;;;;;;5119654;27;20201;-73
2022/05/06 00:27:18;;;;;;;13.48;8.65;;;11.40;99.90;;;;;;5124285;27;20216;-71
2022/05/06 00:29:45;;;;;;;12.20;8.60;;;11.40;99.90;;;;;;5115047;27;21052;-72
2022/05/06 00:32:12;;;;;;;13.45;8.55;;;11.40;99.90;;;;;;5126930;27;20192;-73
2022/05/06 00:34:41;;;;;;;11.85;8.73;;;11.40;99.90;;;;;;5123280;27;20717;-73
2022/05/06 00:37:07;;;;;;;16.35;9.27;;;11.30;99.90;;;;;;5127372;27;20666;-73
2022/05/06 00:39:36;;;;;;;13.38;10.10;;;11.30;99.90;;;;;;5126732;27;20209;-72
2022/05/06 00:42:03;;;;;;;11.82;10.10;;;11.30;99.90;;;;;;5113001;28;20226;-72
2022/05/06 00:44:30;;;;;;;12.45;9.57;;;11.30;99.90;;;;;;5108432;28;20252;-75
2022/05/06 00:46:59;;;;;;;16.95;13.38;;;11.30;99.90;;;;;;5121663;27;20281;-74
2022/05/06 00:49:26;;;;;;;12.85;9.18;;;11.40;99.90;;;;;;5129248;27;20222;-75
2022/05/06 00:51:54;;;;;;;19.67;10.98;;;11.30;99.90;;;;;;5130172;27;20196;-73
2022/05/06 00:54:23;;;;;;;16.35;9.30;;;11.20;99.90;;;;;;5127861;27;20326;-73
2022/05/06 00:56:53;;;;;;;11.18;9.20;;;11.20;99.90;;;;;;5128969;27;20194;-74
2022/05/06 00:59:20;;;;;;;12.00;9.90;;;11.20;99.90;;;;;;5128268;27;20221;-73
2022/05/06 01:01:47;;;;;;;15.10;10.25;;;11.20;99.90;;;;;;5129273;27;20216;-72
2022/05/06 01:04:16;;;;;;;11.50;8.23;;;11.20;99.90;;;;;;5124975;27;20230;-73
2022/05/06 01:06:44;;;;;;;10.32;7.90;;;11.10;99.90;;;;;;5131044;27;20201;-73
2022/05/06 01:09:15;;;;;;;11.90;8.82;;;11.10;99.90;;;;;;5125122;27;20218;-73
2022/05/06 01:11:43;;;;;;;10.30;8.98;;;11.10;99.90;;;;;;5128613;27;20770;-73
2022/05/06 01:14:12;;;;;;;13.18;8.52;;;11.10;99.90;;;;;;5122416;27;20732;-72
2022/05/06 01:16:39;;;;;;;12.60;9.20;;;11.30;99.90;;;;;;5127554;27;20193;-73
2022/05/06 01:19:06;;;;;;;15.50;9.25;;;11.10;99.90;;;;;;5131766;27;20313;-73
2022/05/06 01:21:37;;;;;;;15.30;9.38;;;11.10;99.90;;;;;;5114924;28;20643;-73
2022/05/06 01:24:06;;;;;;;18.80;9.85;;;11.10;99.90;;;;;;5133634;27;20273;-73
2022/05/06 01:26:57;;;;;;;13.23;9.02;;;11.10;99.90;;;;;;5135662;27;20290;-73
2022/05/06 01:29:24;;;;;;;12.60;9.18;;;11.20;99.90;;;;;;5134586;27;20248;-73
2022/05/06 01:31:52;;;;;;;16.15;10.02;;;11.30;99.90;;;;;;5134941;27;20207;-74
2022/05/06 01:34:25;;;;;;;11.25;9.48;;;11.20;99.90;;;;;;5135565;27;20623;-73
2022/05/06 01:36:54;;;;;;;14.00;9.18;;;11.20;99.90;;;;;;5135636;27;20551;-72
2022/05/06 01:39:29;;;;;;;13.35;9.77;;;11.10;99.90;;;;;;5134914;27;20344;-73
2022/05/06 01:42:00;;;;;;;13.13;10.00;;;11.10;99.90;;;;;;5134843;27;20690;-72
2022/05/06 01:44:30;;;;;;;11.43;9.60;;;11.10;99.90;;;;;;5135104;27;20236;-73
2022/05/06 01:47:01;;;;;;;12.75;10.68;;;11.10;99.90;;;;;;5135108;27;20202;-74
2022/05/06 01:49:31;;;;;;;13.20;11.05;;;11.00;99.90;;;;;;5128814;27;20308;-71
2022/05/06 01:51:59;;;;;;;13.32;9.82;;;11.00;99.90;;;;;;5112707;28;20217;-73
2022/05/06 01:54:27;;;;;;;14.25;10.57;;;11.00;99.90;;;;;;5121347;27;20284;-72
2022/05/06 01:56:54;;;;;;;16.70;10.63;;;11.10;99.90;;;;;;5122846;27;20622;-73
2022/05/06 01:59:21;;;;;;;16.38;11.40;;;11.10;99.90;;;;;;5124165;27;20216;-73
2022/05/06 02:01:48;;;;;;;12.98;10.50;;;11.10;99.90;;;;;;5128296;27;20676;-73
2022/05/06 02:06:58;;;;;;;16.75;10.68;;;11.10;99.90;;;;;;5089798;27;20666;-74
2022/05/06 02:09:26;;;;;;;14.40;11.13;;;11.10;99.90;;;;;;5125051;27;20310;-74
2022/05/06 02:11:53;;;;;;;16.67;11.65;;;11.20;99.90;;;;;;5126701;27;20240;-72
2022/05/06 02:14:20;;;;;;;15.60;11.25;;;11.10;99.90;;;;;;5125584;27;20194;-73
2022/05/06 02:16:48;;;;;;;15.65;11.27;;;11.10;99.90;;;;;;5128880;27;20301;-73
2022/05/06 02:19:15;;;;;;;17.33;11.63;;;11.10;99.90;;;;;;5123654;27;20308;-72
2022/05/06 02:21:42;;;;;;;20.33;13.70;;;11.20;99.90;;;;;;5127410;27;20316;-71
2022/05/06 02:24:10;;;;;;;17.40;10.60;;;11.20;99.90;;;;;;5126984;27;20205;-72
2022/05/06 02:26:42;;;;;;;13.07;10.25;;;11.20;99.90;;;;;;5131486;27;20571;-72
2022/05/06 02:29:09;;;;;;;15.45;11.88;;;11.20;99.90;;;;;;5124702;27;20250;-72
2022/05/06 02:34:21;;;;;;;19.05;12.35;;;11.30;99.90;;;;;;5126270;27;20714;-72
2022/05/06 02:36:48;;;;;;;14.07;10.95;;;11.30;99.90;;;;;;5124262;27;20201;-72
2022/05/06 02:39:15;;;;;;;13.60;11.02;;;11.30;99.90;;;;;;5132366;27;20322;-72
2022/05/06 02:41:44;;;;;;;16.02;12.90;;;11.30;99.90;;;;;;5123983;27;20298;-73
2022/05/06 02:44:12;;;;;;;16.60;10.95;;;11.30;99.90;;;;;;5130820;28;20198;-73
2022/05/06 02:46:39;;;;;;;14.48;10.93;;;11.30;99.90;;;;;;5123299;28;20234;-74
2022/05/06 02:49:06;;;;;;;17.75;11.60;;;11.30;99.90;;;;;;5127968;28;20270;-72
2022/05/06 02:51:33;;;;;;;15.18;13.07;;;11.20;99.90;;;;;;5125208;28;20206;-72
2022/05/06 02:54:00;;;;;;;17.42;11.70;;;11.20;99.90;;;;;;5128559;28;20205;-72
2022/05/06 02:56:27;;;;;;;14.07;11.25;;;11.10;99.90;;;;;;5122382;28;20189;-72
2022/05/06 02:58:55;;;;;;;15.50;12.02;;;11.10;99.90;;;;;;5126830;28;20231;-73
2022/05/06 03:01:22;;;;;;;14.93;11.40;;;11.10;99.90;;;;;;5121974;28;20574;-73
2022/05/06 03:03:49;;;;;;;13.93;12.27;;;11.10;99.90;;;;;;5127616;27;20248;-74
2022/05/06 03:06:16;;;;;;;17.02;11.70;;;11.10;99.90;;;;;;5131709;27;20208;-73
2022/05/06 03:08:43;;;;;;;16.30;11.43;;;11.00;99.90;;;;;;5122742;27;20238;-74
2022/05/06 03:11:10;;;;;;;13.75;9.90;;;11.00;99.90;;;;;;5129236;27;20202;-74
2022/05/06 03:13:37;;;;;;;14.65;11.32;;;10.90;99.90;;;;;;5135797;27;20203;-73
2022/05/06 03:16:06;;;;;;;15.38;11.23;;;10.90;99.90;;;;;;5127437;27;20206;-73
2022/05/06 03:18:32;;;;;;;11.77;10.30;;;10.80;99.90;;;;;;5133228;27;20707;-74
2022/05/06 03:21:00;;;;;;;14.10;8.85;;;10.80;99.90;;;;;;5133617;27;20219;-73
2022/05/06 03:23:27;;;;;;;13.43;9.27;;;10.70;99.90;;;;;;5130573;27;20274;-75
2022/05/06 03:25:54;;;;;;;13.90;9.27;;;10.70;99.90;;;;;;5125561;27;20200;-72
2022/05/06 03:28:21;;;;;;;10.50;9.38;;;10.70;99.90;;;;;;5131622;27;20242;-73
2022/05/06 03:30:48;;;;;;;16.98;9.27;;;10.60;99.90;;;;;;5133330;27;20566;-73
2022/05/06 03:33:18;;;;;;;12.48;10.13;;;10.50;99.90;;;;;;5128795;27;20193;-73
2022/05/06 03:35:45;;;;;;;18.33;9.90;;;10.50;99.90;;;;;;5131905;27;20655;-74
2022/05/06 03:38:13;;;;;;;13.38;9.15;;;10.50;99.90;;;;;;5117742;27;20657;-73
2022/05/06 03:40:40;;;;;;;13.55;10.20;;;10.60;99.90;;;;;;5124951;27;20200;-73
2022/05/06 03:43:07;;;;;;;18.73;10.98;;;10.60;99.90;;;;;;5123907;27;20225;-74
2022/05/06 03:45:36;;;;;;;15.25;9.65;;;10.50;99.90;;;;;;5131053;27;20313;-73
2022/05/06 03:48:03;;;;;;;15.32;9.80;;;10.50;99.90;;;;;;5117662;27;20214;-75
2022/05/06 03:53:16;;;;;;;12.55;9.77;;;10.50;99.90;;;;;;5115927;28;20232;-74
2022/05/06 03:55:43;;;;;;;12.88;9.95;;;10.60;99.90;;;;;;5125545;27;20194;-73
2022/05/06 03:58:15;;;;;;;15.15;10.82;;;10.60;99.90;;;;;;5130644;27;20735;-75
2022/05/06 04:00:42;;;;;;;19.13;11.52;;;10.60;99.90;;;;;;5137671;27;20189;-73
2022/05/06 04:03:20;;;;;;;10.73;9.60;;;10.60;99.90;;;;;;5138093;27;20303;-75
2022/05/06 04:05:49;;;;;;;13.45;10.38;;;10.60;99.90;;;;;;5136864;27;20194;-74
2022/05/06 04:08:21;;;;;;;16.02;11.52;;;10.50;99.90;;;;;;5136811;27;20778;-74
2022/05/06 04:10:48;;;;;;;14.25;10.55;;;10.50;99.90;;;;;;5135761;27;20646;-73
2022/05/06 04:13:27;;;;;;;17.95;10.02;;;10.60;99.90;;;;;;5137105;27;20182;-74
2022/05/06 04:15:54;;;;;;;13.63;11.35;;;10.60;99.90;;;;;;5136351;27;20272;-73
2022/05/06 04:18:22;;;;;;;16.70;12.10;;;10.60;99.90;;;;;;5136920;27;20221;-73
2022/05/06 04:23:37;;;;;;;14.00;11.82;;;10.70;99.90;;;;;;5136723;27;20232;-74
2022/05/06 04:26:06;;;;;;;14.48;12.95;;;10.60;99.90;;;;;;5119280;27;20213;-73
2022/05/06 04:28:34;;;;;;;23.48;13.27;;;10.70;99.90;;;;;;5136453;27;20216;-72
2022/05/06 04:31:03;;;;;;;16.90;12.05;;;10.70;99.90;;;;;;5125355;27;20211;-74
2022/05/06 04:33:30;;;;;;;16.70;12.70;;;10.80;99.90;;;;;;5116188;28;20186;-72
2022/05/06 04:35:59;;;;;;;16.33;11.23;;;10.90;99.90;;;;;;5114577;27;20232;-72
2022/05/06 04:38:27;;;;;;;15.32;10.85;;;11.00;99.90;;;;;;5123688;27;20257;-72
2022/05/06 04:40:55;;;;;;;15.02;11.77;;;11.10;99.90;;;;;;5115186;28;20773;-73
2022/05/06 04:43:21;;;;;;;15.77;12.48;;;11.20;99.90;;;;;;5115354;28;20228;-73
2022/05/06 04:45:50;;;;;;;15.93;12.40;;;11.40;99.90;;;;;;5116436;28;20208;-72
2022/05/06 04:48:17;;;;;;;15.32;11.25;;;11.50;99.90;;;;;;5115319;28;20690;-74
2022/05/06 04:50:45;;;;;;;15.45;10.50;;;11.70;99.90;;;;;;5114257;28;20241;-73
2022/05/06 04:53:15;;;;;;;13.90;10.27;;;12.10;99.90;;;;;;5115135;28;20617;-73
2022/05/06 04:55:43;;;;;;;16.13;11.73;;;12.70;99.90;;;;;;5109362;27;20206;-73
2022/05/06 04:58:11;;;;;;;16.52;11.25;;;13.50;99.90;;;;;;5103350;28;20278;-73
2022/05/06 05:00:38;;;;;;;16.23;10.95;;;14.30;99.90;;;;;;5099206;28;20296;-73
2022/05/06 05:03:05;;;;;;;18.67;11.52;;;14.80;99.90;;;;;;5102005;28;20654;-74
2022/05/06 05:05:32;;;;;;;14.60;11.63;;;15.20;99.90;;;;;;5110626;28;20675;-75
2022/05/06 05:07:59;;;;;;;14.88;11.52;;;15.70;99.90;;;;;;5123432;27;20209;-72
2022/05/06 05:10:28;;;;;;;13.95;11.55;;;16.30;99.90;;;;;;5123523;27;20233;-74
2022/05/06 05:12:55;;;;;;;15.68;10.65;;;16.70;99.90;;;;;;5128221;27;20202;-70
2022/05/06 05:15:22;;;;;;;13.33;10.93;;;17.20;99.90;;;;;;5129825;27;20192;-72
2022/05/06 05:17:49;;;;;;;14.53;11.43;;;18.20;99.90;;;;;;5128214;27;20450;-74
2022/05/06 05:20:16;;;;;;;15.23;11.70;;;19.10;97.30;;;;;;5128162;27;20450;-74
2022/05/06 05:22:44;;;;;;;15.50;11.00;;;20.00;94.60;;;;;;5127029;27;20713;-75
2022/05/06 05:25:11;;;;;;;15.27;10.80;;;20.90;92.10;;;;;;5128968;27;20536;-74
2022/05/06 05:27:40;;;;;;;16.60;12.80;;;21.70;90.00;;;;;;5130948;27;20461;-72
2022/05/06 05:30:09;;;;;;;13.13;11.83;;;22.10;86.70;;;;;;5126501;27;20474;-73
2022/05/06 05:32:37;;;;;;;14.87;12.10;;;22.30;85.10;;;;;;5129941;27;20442;-73
2022/05/06 05:35:04;;;;;;;20.20;12.33;;;22.40;84.60;;;;;;5120155;27;21082;-71
2022/05/06 05:37:31;;;;;;;18.77;12.70;;;22.70;83.30;;;;;;5129907;27;20470;-72
2022/05/06 05:39:58;;;;;;;14.70;11.47;;;22.80;82.20;;;;;;5128758;27;20455;-73
2022/05/06 05:42:27;;;;;;;14.60;13.10;;;23.10;81.20;;;;;;5120151;27;20454;-74
2022/05/06 05:50:27;;;;;;;14.83;13.20;;;24.00;78.50;;;;;;5100736;27;20510;-76
2022/05/06 05:52:55;;;;;;;14.40;12.90;;;24.50;76.30;;;;;;5105644;28;20490;-72
2022/05/06 05:55:22;;;;;;;18.80;12.13;;;24.30;75.50;;;;;;5117785;27;20438;-72
2022/05/06 05:57:49;;;;;;;14.47;12.30;;;24.60;74.70;;;;;;5124337;27;20558;-73
2022/05/06 06:00:18;;;;;;;14.47;12.20;;;24.90;74.80;;;;;;5125768;27;20459;-73
2022/05/06 06:02:45;;;;;;;19.00;12.67;;;25.60;72.90;;;;;;5129554;27;20479;-73
2022/05/06 06:05:12;;;;;;;18.30;13.30;;;25.60;71.20;;;;;;5125742;27;20873;-74
2022/05/06 06:07:39;;;;;;;15.60;11.77;;;25.80;71.10;;;;;;5128400;27;20841;-73
2022/05/06 06:10:08;;;;;;;15.40;11.03;;;25.40;71.30;;;;;;5133812;27;20474;-73
2022/05/06 06:12:35;;;;;;;15.27;11.80;;;25.20;72.50;;;;;;5125939;27;20466;-73
2022/05/06 06:15:02;;;;;;;15.10;12.03;;;25.30;73.10;;;;;;5131892;27;20442;-73
2022/05/06 06:17:31;;;;;;;12.33;11.07;;;25.30;71.50;;;;;;5130293;27;20446;-73
2022/05/06 06:19:58;;;;;;;18.40;11.83;;;25.50;71.10;;;;;;5130698;27;21027;-74
2022/05/06 06:22:25;;;;;;;14.20;11.40;;;25.40;71.30;;;;;;5134908;27;20438;-72
2022/05/06 06:24:54;;;;;;;13.30;10.80;;;25.20;72.60;;;;;;5135023;27;20578;-73
2022/05/06 06:27:21;;;;;;;12.53;10.70;;;25.60;71.60;;;;;;5134889;27;20423;-72
2022/05/06 06:29:54;;;;;;;14.10;11.50;;;25.90;71.50;;;;;;5134316;27;20517;-72
2022/05/06 06:32:21;;;;;;;16.17;13.97;;;26.10;71.00;;;;;;5134355;27;20933;-73
2022/05/06 06:34:51;;;;;;;12.57;10.83;;;25.60;70.30;;;;;;5128204;27;20435;-73
2022/05/06 06:37:19;;;;;;;18.50;13.50;;;25.70;72.10;;;;;;5121823;27;20444;-73
2022/05/06 06:39:46;;;;;;;15.83;12.03;;;26.00;71.80;;;;;;5112053;28;20552;-74
2022/05/06 06:42:14;;;;;;;16.83;13.43;;;25.80;71.90;;;;;;5113088;28;20459;-73
2022/05/06 06:44:41;;;;;;;19.90;13.10;;;25.80;72.10;;;;;;5113141;28;20566;-72
2022/05/06 06:47:11;;;;;;;13.50;11.60;;;26.10;72.00;;;;;;5113523;28;20514;-74
2022/05/06 06:49:37;;;;;;;14.27;12.10;;;26.10;69.20;;;;;;5112423;28;20995;-73
2022/05/06 06:52:06;;;;;;;15.23;12.03;;;26.20;69.50;;;;;;5113566;28;20471;-73
2022/05/06 06:54:34;;;;;;;12.93;11.57;;;26.70;69.30;;;;;;5113421;28;20443;-73
2022/05/06 06:57:01;;;;;;;13.20;11.10;;;27.30;68.10;;;;;;5113439;28;20449;-74
2022/05/06 06:59:28;;;;;;;21.20;12.77;;;27.90;66.00;;;;;;5116816;28;20470;-73
2022/05/06 07:01:54;;;;;;;16.63;11.03;;;28.00;64.50;;;;;;5116993;28;20791;-73
2022/05/06 07:04:22;;;;;;;16.43;11.47;;;27.40;65.00;;;;;;5113499;28;20917;-72
2022/05/06 07:12:18;;;;;;;18.53;11.30;;;27.40;65.40;;;;;;5133574;27;20476;-74
2022/05/06 07:14:45;;;;;;;14.33;9.93;;;27.60;63.70;;;;;;5133491;28;20506;-73
2022/05/06 07:17:13;;;;;;;13.87;11.30;;;27.50;64.60;;;;;;5118970;28;20526;-73
2022/05/06 07:19:40;;;;;;;18.20;10.07;;;28.00;63.80;;;;;;5112088;28;20475;-73
2022/05/06 07:22:07;;;;;;;13.37;10.40;;;28.20;63.30;;;;;;5113192;28;20447;-73
2022/05/06 07:24:35;;;;;;;11.93;10.40;;;28.30;62.20;;;;;;5112838;28;20515;-73
2022/05/06 07:27:02;;;;;;;16.90;9.23;;;28.90;62.00;;;;;;5113250;28;20443;-73
2022/05/06 07:29:31;;;;;;;13.73;10.20;;;29.60;60.40;;;;;;5112760;28;20802;-73
2022/05/06 07:31:58;;;;;;;12.57;11.30;;;29.80;60.20;;;;;;5113145;28;20465;-73
2022/05/06 07:34:24;;;;;;;11.80;9.60;;;29.70;58.60;;;;;;5113203;28;20432;-72
2022/05/06 07:36:51;;;;;;;14.33;10.00;;;30.20;58.40;;;;;;5113150;28;20872;-74
2022/05/06 07:39:18;;;;;;;13.43;10.50;;;30.30;58.00;;;;;;5121309;28;20473;-74
2022/05/06 07:41:47;;;;;;;15.67;10.83;;;30.10;58.00;;;;;;5127774;28;20546;-72
2022/05/06 07:44:14;;;;;;;11.30;9.50;;;30.50;57.30;;;;;;5134275;28;20458;-74
2022/05/06 07:46:41;;;;;;;17.20;12.20;;;30.20;57.40;;;;;;5133389;27;20911;-74
2022/05/06 07:49:08;;;;;;;16.30;11.00;;;30.10;57.10;;;;;;5133353;27;20466;-73
2022/05/06 07:51:35;;;;;;;11.67;9.37;;;29.80;57.60;;;;;;5135001;27;20434;-72
2022/05/06 07:54:03;;;;;;;11.77;9.93;;;29.70;58.20;;;;;;5136909;27;20442;-74
2022/05/06 07:56:30;;;;;;;11.47;8.70;;;29.50;57.80;;;;;;5137169;27;20822;-73
2022/05/06 07:59:00;;;;;;;10.10;8.80;;;29.50;57.60;;;;;;5132049;27;20466;-73
2022/05/06 08:07:13;;;;;;;11.77;8.87;;;29.30;56.40;;;;;;5137187;27;20445;-73
2022/05/06 08:09:40;;;;;;;11.57;8.50;;;29.10;57.00;;;;;;5121242;27;20462;-72
2022/05/06 08:12:08;;;;;;;11.43;9.97;;;28.90;57.70;;;;;;5116446;28;20474;-73
2022/05/06 08:14:36;;;;;;;10.33;8.70;;;28.90;57.80;;;;;;5116174;28;20542;-73
2022/05/06 08:17:04;;;;;;;12.40;8.87;;;29.30;58.10;;;;;;5116615;28;20538;-73
2022/05/06 08:19:38;;;;;;;12.03;8.30;;;28.60;56.60;;;;;;5116363;28;20537;-73
2022/05/06 08:22:05;;;;;;;10.53;8.50;;;28.80;57.60;;;;;;5116697;28;20472;-73
2022/05/06 08:24:38;;;;;;;13.23;9.10;;;29.20;57.30;;;;;;5115890;28;20483;-73
2022/05/06 08:27:06;;;;;;;15.00;8.17;;;29.00;56.80;;;;;;5116512;28;20443;-72
2022/05/06 08:29:33;;;;;;;15.87;8.30;;;29.00;57.50;;;;;;5116404;28;20993;-74
2022/05/06 08:32:01;;;;;;;10.97;8.47;;;29.40;57.60;;;;;;5115917;28;20424;-73
2022/05/06 08:34:28;;;;;;;12.30;8.70;;;29.50;55.80;;;;;;5115857;28;20967;-74
2022/05/06 08:36:55;;;;;;;8.40;7.57;;;29.50;55.90;;;;;;5115748;28;20875;-74
2022/05/06 08:39:22;;;;;;;8.97;7.00;;;29.60;54.90;;;;;;5123514;27;20973;-73
2022/05/06 08:41:51;;;;;;;8.80;7.27;;;30.20;54.50;;;;;;5131063;27;20430;-72
2022/05/06 08:52:35;;;;;;;9.00;6.73;;;29.90;53.30;;;;;;5136022;27;20406;-72
2022/05/06 08:55:04;;;;;;;8.33;7.33;;;30.30;54.10;;;;;;5136200;27;20447;-72
2022/05/06 08:57:32;;;;;;;10.23;7.00;;;29.30;54.10;;;;;;5130362;27;20454;-74
2022/05/06 08:59:59;;;;;;;6.83;6.23;;;30.10;53.70;;;;;;5123185;27;20567;-72
2022/05/06 09:02:28;;;;;;;10.13;7.30;;;30.60;52.80;;;;;;5132005;27;20446;-73
2022/05/06 09:04:54;;;;;;;8.53;6.60;;;30.10;51.50;;;;;;5131336;27;21001;-74
2022/05/06 09:07:24;;;;;;;7.83;6.70;;;30.20;52.60;;;;;;5121214;27;20531;-74
2022/05/06 09:10:13;;;;;;;8.63;7.50;;;30.30;52.40;;;;;;5128835;27;20459;-74
2022/05/06 09:12:44;;;;;;;12.27;6.70;;;30.50;52.90;;;;;;5123480;27;20451;-74
2022/05/06 09:17:59;;;;;;;9.60;7.17;;;30.40;52.50;;;;;;5119951;27;20560;-74
2022/05/06 09:20:26;;;;;;;8.93;7.90;;;30.40;53.20;;;;;;5129620;27;20452;-72
2022/05/06 09:22:54;;;;;;;9.17;7.77;;;30.00;53.50;;;;;;5130430;27;20470;-72
2022/05/06 09:25:42;;;;;;;7.20;6.50;;;30.10;53.60;;;;;;5127598;27;20498;-73
2022/05/06 09:28:23;;;;;;;11.67;8.47;;;30.60;53.30;;;;;;5130747;27;20450;-73
2022/05/06 09:31:01;;;;;;;11.07;7.20;;;30.80;51.80;;;;;;5124302;27;20794;-73
2022/05/06 09:33:30;;;;;;;8.47;7.27;;;30.20;51.80;;;;;;5126892;27;20465;-74
2022/05/06 09:35:57;;;;;;;8.70;7.20;;;29.70;52.20;;;;;;5123829;27;20461;-73
2022/05/06 09:38:29;;;;;;;12.73;7.50;;;28.80;53.10;;;;;;5124692;27;20474;-73
2022/05/06 09:40:56;;;;;;;13.63;8.33;;;28.20;53.70;;;;;;5127976;27;20453;-73
2022/05/06 09:43:26;;;;;;;10.33;8.50;;;28.00;55.20;;;;;;5128093;27;20434;-72
2022/05/06 09:45:53;;;;;;;10.57;7.00;;;28.20;55.10;;;;;;5130558;27;20507;-73
2022/05/06 09:48:20;;;;;;;11.00;7.07;;;28.90;54.40;;;;;;5125125;27;20988;-73
2022/05/06 09:50:49;;;;;;;12.47;7.13;;;29.20;54.40;;;;;;5129068;27;20452;-73
2022/05/06 09:53:17;;;;;;;11.70;7.80;;;28.90;53.70;;;;;;5122937;27;21146;-73
2022/05/06 09:55:46;;;;;;;11.93;7.80;;;28.90;53.60;;;;;;5125405;27;20526;-73
2022/05/06 09:58:13;;;;;;;7.40;6.70;;;29.00;54.20;;;;;;5127089;27;20439;-73
2022/05/06 10:00:41;;;;;;;10.90;7.80;;;29.20;53.60;;;;;;5125141;27;20466;-73
2022/05/06 10:03:09;;;;;;;9.43;8.47;;;28.70;53.40;;;;;;5125831;27;20439;-72
2022/05/06 10:05:37;;;;;;;10.33;8.00;;;28.50;53.40;;;;;;5119571;27;20479;-72
2022/05/06 10:08:09;;;;;;;12.67;8.70;;;28.10;53.50;;;;;;5126442;27;20444;-74
2022/05/06 10:10:41;;;;;;;7.37;6.10;;;28.00;54.50;;;;;;5125265;27;20945;-72
2022/05/06 10:13:12;;;;;;;8.90;7.53;;;28.60;53.90;;;;;;5124832;27;20530;-73
2022/05/06 10:15:40;;;;;;;9.23;8.00;;;28.70;54.40;;;;;;5132869;27;20441;-72
2022/05/06 10:18:08;;;;;;;14.77;9.53;;;28.50;53.10;;;;;;5124786;27;20530;-74
2022/05/06 10:21:00;;;;;;;11.33;7.50;;;28.30;53.30;;;;;;5125996;27;20447;-71
2022/05/06 10:23:49;;;;;;;9.93;8.40;;;28.50;53.70;;;;;;5118235;27;20435;-74
2022/05/06 10:26:42;;;;;;;11.10;8.73;;;28.40;53.50;;;;;;5114066;27;20537;-72
2022/05/06 10:35:11;;;;;;;6.37;5.63;;;25.80;57.50;;;;;;5120243;27;20435;-74
2022/05/06 10:37:41;;;;;;;7.70;5.90;;;25.80;56.90;;;;;;5117334;27;20447;-73
2022/05/06 10:40:31;;;;;;;7.23;6.27;;;25.60;57.60;;;;;;5122142;27;20536;-73
2022/05/06 10:43:00;;;;;;;9.17;5.97;;;25.70;58.10;;;;;;5127044;27;20442;-74
2022/05/06 10:45:29;;;;;;;8.30;5.83;;;25.60;57.30;;;;;;5129495;27;20468;-74
2022/05/06 10:48:21;;;;;;;11.93;6.77;;;25.30;58.20;;;;;;5127610;27;20545;-73
2022/05/06 10:50:48;;;;;;;17.43;7.40;;;25.40;58.10;;;;;;5124747;28;20427;-74
2022/05/06 10:53:40;;;;;;;12.93;6.57;;;25.60;58.40;;;;;;5134376;27;20474;-73
2022/05/06 10:56:08;;;;;;;7.57;6.17;;;25.50;58.80;;;;;;5135121;27;20455;-73
2022/05/06 10:58:35;;;;;;;9.00;5.27;;;25.50;58.60;;;;;;5123575;27;20509;-72
2022/05/06 11:01:02;;;;;;;8.13;5.23;;;25.20;58.40;;;;;;5116141;28;20443;-73
2022/05/06 11:03:29;;;;;;;6.30;5.60;;;24.70;59.10;;;;;;5127810;28;20517;-72
2022/05/06 11:05:56;;;;;;;12.83;6.10;;;24.20;59.10;;;;;;5124021;28;20482;-72
2022/05/06 11:08:33;;;;;;;6.83;4.63;;;23.80;59.70;;;;;;5120046;28;20466;-73
2022/05/06 11:11:01;;;;;;;9.40;5.80;;;23.90;60.10;;;;;;5122291;27;20879;-74
2022/05/06 11:13:29;;;;;;;6.20;5.43;;;24.40;60.30;;;;;;5128793;28;20446;-74
2022/05/06 11:15:58;;;;;;;6.80;5.57;;;24.60;60.10;;;;;;5125178;27;20478;-73
2022/05/06 11:18:25;;;;;;;5.83;5.33;;;24.50;60.10;;;;;;5120755;27;20952;-73
2022/05/06 11:20:52;;;;;;;5.70;5.10;;;24.10;60.30;;;;;;5124382;28;20442;-74
2022/05/06 11:23:19;;;;;;;9.30;5.70;;;23.50;60.40;;;;;;5127792;28;20881;-73
2022/05/06 11:25:47;;;;;;;7.93;6.50;;;22.90;61.90;;;;;;5133213;27;20572;-73
2022/05/06 11:28:16;;;;;;;7.10;5.50;;;22.90;62.20;;;;;;5129276;27;20893;-73
2022/05/06 11:30:47;;;;;;;9.20;6.70;;;23.30;63.00;;;;;;5131552;27;20466;-74
2022/05/06 11:33:24;;;;;;;9.83;5.90;;;23.60;62.30;;;;;;5128140;27;20928;-72
2022/05/06 11:35:51;;;;;;;9.07;6.10;;;24.20;62.30;;;;;;5124436;27;20815;-71
2022/05/06 11:38:30;;;;;;;11.73;5.70;;;24.40;60.80;;;;;;5136133;27;20458;-73
2022/05/06 11:41:05;;;;;;;6.53;5.23;;;24.30;60.10;;;;;;5121881;27;20447;-73
2022/05/06 11:43:32;;;;;;;11.33;8.30;;;24.60;59.40;;;;;;5131145;27;20528;-73
2022/05/06 11:48:46;;;;;;;10.23;7.03;;;24.20;60.00;;;;;;5129926;27;20459;-73
2022/05/06 11:51:16;;;;;;;9.50;6.67;;;24.00;61.00;;;;;;5126920;27;20859;-73
2022/05/06 11:53:44;;;;;;;12.93;6.73;;;23.80;61.30;;;;;;5131235;27;20530;-72
2022/05/06 11:56:12;;;;;;;9.30;7.47;;;23.80;61.50;;;;;;5120622;27;20458;-72
2022/05/06 11:58:40;;;;;;;17.10;7.50;;;23.90;61.50;;;;;;5127631;27;20533;-73
2022/05/06 12:01:10;;;;;;;13.87;9.63;;;23.90;60.70;;;;;;5119869;27;20530;-73
2022/05/06 12:03:38;;;;;;;8.10;6.47;;;23.80;62.00;;;;;;5128603;27;20962;-74
2022/05/06 12:06:08;;;;;;;7.67;5.67;;;23.80;61.00;;;;;;5120014;27;20595;-75
2022/05/06 12:08:36;;;;;;;7.57;5.73;;;23.70;61.30;;;;;;5123985;27;20586;-72
2022/05/06 12:11:06;;;;;;;6.87;5.53;;;23.50;61.30;;;;;;5109664;28;20800;-74
2022/05/06 12:13:40;;;;;;;9.53;5.40;;;23.40;61.60;;;;;;5114522;27;20802;-72
2022/05/06 12:16:14;;;;;;;5.20;4.70;;;23.50;61.70;;;;;;5109624;28;20467;-73
2022/05/06 12:18:54;;;;;;;6.47;5.73;;;23.50;61.20;;;;;;5105091;28;20474;-74
2022/05/06 12:21:24;;;;;;;9.03;6.10;;;23.50;61.40;;;;;;5119744;27;20517;-74
2022/05/06 12:23:56;;;;;;;7.97;6.10;;;23.60;61.90;;;;;;5129954;27;20456;-72
2022/05/06 12:26:34;;;;;;;9.30;6.73;;;23.50;62.00;;;;;;5115204;28;20510;-74
2022/05/06 12:29:03;;;;;;;7.70;5.77;;;23.60;62.00;;;;;;5115308;28;21045;-72
2022/05/06 12:31:33;;;;;;;8.13;6.20;;;23.50;61.90;;;;;;5115336;28;20489;-73
2022/05/06 12:34:08;;;;;;;10.47;5.90;;;23.70;61.70;;;;;;5116614;28;20534;-73
2022/05/06 12:36:36;;;;;;;6.97;6.03;;;23.60;61.20;;;;;;5127428;27;20469;-75
2022/05/06 12:39:20;;;;;;;8.30;6.13;;;23.50;61.30;;;;;;5133136;27;20485;-74
2022/05/06 12:41:47;;;;;;;7.60;5.83;;;23.30;61.20;;;;;;5111151;27;20452;-73
2022/05/06 12:44:16;;;;;;;8.90;7.43;;;23.20;61.80;;;;;;5119447;27;20498;-73
2022/05/06 12:46:45;;;;;;;8.97;6.00;;;23.00;61.50;;;;;;5122467;27;20486;-74
2022/05/06 12:51:57;;;;;;;6.30;5.43;;;23.40;61.30;;;;;;5129920;27;20784;-74
2022/05/06 12:54:26;;;;;;;6.10;4.90;;;23.70;60.00;;;;;;5124819;27;20440;-74
2022/05/06 12:56:53;;;;;;;9.00;5.57;;;23.80;59.60;;;;;;5123486;27;20443;-76
2022/05/06 12:59:21;;;;;;;8.50;6.40;;;24.10;60.20;;;;;;5129631;27;20986;-74
2022/05/06 13:01:50;;;;;;;9.50;7.23;;;23.90;61.30;;;;;;5121618;27;20956;-74
2022/05/06 13:04:18;;;;;;;8.93;6.60;;;23.80;61.30;;;;;;5131279;27;20450;-73
2022/05/06 13:06:45;;;;;;;9.90;8.03;;;23.70;61.40;;;;;;5120957;27;20559;-73
2022/05/06 13:09:12;;;;;;;7.57;5.67;;;23.70;61.50;;;;;;5114115;28;20530;-72
2022/05/06 13:11:39;;;;;;;13.07;7.07;;;23.90;62.10;;;;;;5121985;27;20434;-71
2022/05/06 13:14:07;;;;;;;8.07;6.83;;;23.90;61.50;;;;;;5127075;27;20894;-74
2022/05/06 13:16:35;;;;;;;7.10;5.57;;;23.80;62.10;;;;;;5128373;27;20462;-75
2022/05/06 13:19:06;;;;;;;10.07;6.10;;;23.80;61.80;;;;;;5125269;27;20498;-72
2022/05/06 13:21:33;;;;;;;9.90;5.93;;;23.80;62.10;;;;;;5122346;27;20449;-75
2022/05/06 13:24:00;;;;;;;9.43;5.87;;;23.70;61.70;;;;;;5118374;27;20518;-73
2022/05/06 13:26:27;;;;;;;6.97;6.10;;;23.90;62.20;;;;;;5119605;27;20562;-74
2022/05/06 13:28:54;;;;;;;10.93;6.40;;;23.90;62.30;;;;;;5120788;27;20857;-73
2022/05/06 13:31:21;;;;;;;10.47;6.97;;;24.00;62.50;;;;;;5106163;28;20462;-73
2022/05/06 13:33:48;;;;;;;8.90;7.20;;;23.80;62.20;;;;;;5122774;27;20443;-73